sensor_id;sensor_type;location;lat;lon;timestamp;temperature;humidity
9662;DHT22;24982;52.344;12.990;2023-04-15T00:00:12;9.00;99.90
9662;DHT22;24982;52.344;12.990;2023-04-15T00:03:15;8.90;99.90
9662;DHT22;24982;52.344;12.990;2023-04-15T00:06:17;9.00;99.90
9662;DHT22;24982;52.344;12.990;2023-04-15T00:09:20;8.90;99.90
9662;DHT22;24982;52.344;12.990;2023-04-15T00:12:24;9.00;99.90
9662;DHT22;24982;52.344;12.990;2023-04-15T00:15:26;8.90;99.90
9662;DHT22;24982;52.344;12.990;2023-04-15T00:18:28;9.00;99.90
9662;DHT22;24982;52.344;12.990;2023-04-15T00:21:31;9.00;99.90
9662;DHT22;24982;52.344;12.990;2023-04-15T00:24:33;8.90;99.90
9662;DHT22;24982;52.344;12.990;2023-04-15T00:27:37;9.00;99.90
9662;DHT22;24982;52.344;12.990;2023-04-15T00:30:42;9.10;99.90
9662;DHT22;24982;52.344;12.990;2023-04-15T00:33:44;9.00;99.90
9662;DHT22;24982;52.344;12.990;2023-04-15T00:36:46;9.00;99.90
9662;DHT22;24982;52.344;12.990;2023-04-15T00:39:48;9.10;99.90
9662;DHT22;24982;52.344;12.990;2023-04-15T00:42:51;9.00;99.90
9662;DHT22;24982;52.344;12.990;2023-04-15T00:45:54;8.70;99.90
9662;DHT22;24982;52.344;12.990;2023-04-15T00:48:57;9.00;99.90
9662;DHT22;24982;52.344;12.990;2023-04-15T00:51:59;9.00;99.90
9662;DHT22;24982;52.344;12.990;2023-04-15T00:55:01;9.00;99.90
9662;DHT22;24982;52.344;12.990;2023-04-15T00:58:05;9.00;99.90
9662;DHT22;24982;52.344;12.990;2023-04-15T01:01:07;9.00;99.90
9662;DHT22;24982;52.344;12.990;2023-04-15T01:04:09;9.00;99.90
9662;DHT22;24982;52.344;12.990;2023-04-15T01:07:12;9.00;99.90
9662;DHT22;24982;52.344;12.990;2023-04-15T01:10:14;9.00;99.90
9662;DHT22;24982;52.344;12.990;2023-04-15T01:13:18;9.10;99.90
9662;DHT22;24982;52.344;12.990;2023-04-15T01:16:21;9.00;99.90
9662;DHT22;24982;52.344;12.990;2023-04-15T01:19:23;9.00;99.90
9662;DHT22;24982;52.344;12.990;2023-04-15T01:22:26;9.00;99.90
9662;DHT22;24982;52.344;12.990;2023-04-15T01:25:32;9.00;99.90
9662;DHT22;24982;52.344;12.990;2023-04-15T01:28:34;9.00;99.90
9662;DHT22;24982;52.344;12.990;2023-04-15T01:31:38;9.00;99.90
9662;DHT22;24982;52.344;12.990;2023-04-15T01:34:40;9.00;99.90
9662;DHT22;24982;52.344;12.990;2023-04-15T01:37:42;9.00;99.90
9662;DHT22;24982;52.344;12.990;2023-04-15T01:40:45;9.00;99.90
9662;DHT22;24982;52.344;12.990;2023-04-15T01:43:47;9.00;99.90
9662;DHT22;24982;52.344;12.990;2023-04-15T01:46:49;9.00;99.90
9662;DHT22;24982;52.344;12.990;2023-04-15T01:49:52;9.00;99.90
9662;DHT22;24982;52.344;12.990;2023-04-15T01:52:54;9.00;99.90
9662;DHT22;24982;52.344;12.990;2023-04-15T01:56:01;9.00;99.90
9662;DHT22;24982;52.344;12.990;2023-04-15T01:59:03;9.00;99.90
9662;DHT22;24982;52.344;12.990;2023-04-15T02:02:05;9.00;99.90
9662;DHT22;24982;52.344;12.990;2023-04-15T02:05:08;9.00;99.90
9662;DHT22;24982;52.344;12.990;2023-04-15T02:08:11;9.10;99.90
9662;DHT22;24982;52.344;12.990;2023-04-15T02:11:14;9.00;99.90
9662;DHT22;24982;52.344;12.990;2023-04-15T02:14:16;9.10;99.90
9662;DHT22;24982;52.344;12.990;2023-04-15T02:17:18;9.00;99.90
9662;DHT22;24982;52.344;12.990;2023-04-15T02:20:20;9.00;99.90
9662;DHT22;24982;52.344;12.990;2023-04-15T02:23:23;9.10;99.90
9662;DHT22;24982;52.344;12.990;2023-04-15T02:26:26;9.10;99.90
9662;DHT22;24982;52.344;12.990;2023-04-15T02:29:31;9.10;99.90
9662;DHT22;24982;52.344;12.990;2023-04-15T02:32:35;9.10;99.90
9662;DHT22;24982;52.344;12.990;2023-04-15T02:35:37;9.10;99.90
9662;DHT22;24982;52.344;12.990;2023-04-15T02:38:43;9.10;99.90
9662;DHT22;24982;52.344;12.990;2023-04-15T02:41:49;9.10;99.90
9662;DHT22;24982;52.344;12.990;2023-04-15T02:44:52;9.10;99.90
9662;DHT22;24982;52.344;12.990;2023-04-15T02:47:56;9.10;99.90
9662;DHT22;24982;52.344;12.990;2023-04-15T02:51:13;9.10;99.90
9662;DHT22;24982;52.344;12.990;2023-04-15T02:54:16;9.10;99.90
9662;DHT22;24982;52.344;12.990;2023-04-15T02:57:19;9.10;99.90
9662;DHT22;24982;52.344;12.990;2023-04-15T03:00:22;9.10;99.90
9662;DHT22;24982;52.344;12.990;2023-04-15T03:03:25;9.10;99.90
9662;DHT22;24982;52.344;12.990;2023-04-15T03:06:27;9.10;99.90
9662;DHT22;24982;52.344;12.990;2023-04-15T03:09:29;9.10;99.90
9662;DHT22;24982;52.344;12.990;2023-04-15T03:12:34;9.10;99.90
9662;DHT22;24982;52.344;12.990;2023-04-15T03:15:36;9.10;99.90
9662;DHT22;24982;52.344;12.990;2023-04-15T03:18:39;9.10;99.90
9662;DHT22;24982;52.344;12.990;2023-04-15T03:21:41;9.20;99.90
9662;DHT22;24982;52.344;12.990;2023-04-15T03:24:43;9.10;99.90
9662;DHT22;24982;52.344;12.990;2023-04-15T03:27:47;9.10;99.90
9662;DHT22;24982;52.344;12.990;2023-04-15T03:30:49;9.10;99.90
9662;DHT22;24982;52.344;12.990;2023-04-15T03:33:51;9.10;99.90
9662;DHT22;24982;52.344;12.990;2023-04-15T03:36:53;9.10;99.90
9662;DHT22;24982;52.344;12.990;2023-04-15T03:39:55;9.20;99.90
9662;DHT22;24982;52.344;12.990;2023-04-15T03:42:59;9.10;99.90
9662;DHT22;24982;52.344;12.990;2023-04-15T03:46:01;9.10;99.90
9662;DHT22;24982;52.344;12.990;2023-04-15T03:49:05;9.10;99.90
9662;DHT22;24982;52.344;12.990;2023-04-15T03:52:07;9.10;99.90
9662;DHT22;24982;52.344;12.990;2023-04-15T03:55:09;9.10;99.90
9662;DHT22;24982;52.344;12.990;2023-04-15T03:58:12;9.30;99.90
9662;DHT22;24982;52.344;12.990;2023-04-15T04:01:15;9.30;99.90
9662;DHT22;24982;52.344;12.990;2023-04-15T04:04:17;9.10;99.90
9662;DHT22;24982;52.344;12.990;2023-04-15T04:07:19;9.20;99.90
9662;DHT22;24982;52.344;12.990;2023-04-15T04:10:21;9.00;99.90
9662;DHT22;24982;52.344;12.990;2023-04-15T04:13:24;9.20;99.90
9662;DHT22;24982;52.344;12.990;2023-04-15T04:16:26;9.20;99.90
9662;DHT22;24982;52.344;12.990;2023-04-15T04:19:28;9.20;99.90
9662;DHT22;24982;52.344;12.990;2023-04-15T04:22:30;9.20;99.90
9662;DHT22;24982;52.344;12.990;2023-04-15T04:25:32;9.20;99.90
9662;DHT22;24982;52.344;12.990;2023-04-15T04:28:35;9.20;99.90
9662;DHT22;24982;52.344;12.990;2023-04-15T04:31:40;9.20;99.90
9662;DHT22;24982;52.344;12.990;2023-04-15T04:34:42;9.20;99.90
9662;DHT22;24982;52.344;12.990;2023-04-15T04:37:44;9.20;99.90
9662;DHT22;24982;52.344;12.990;2023-04-15T04:43:49;9.30;99.90
9662;DHT22;24982;52.344;12.990;2023-04-15T04:46:51;9.20;99.90
9662;DHT22;24982;52.344;12.990;2023-04-15T04:49:53;9.20;99.90
9662;DHT22;24982;52.344;12.990;2023-04-15T04:52:55;9.20;99.90
9662;DHT22;24982;52.344;12.990;2023-04-15T04:55:57;9.20;99.90
9662;DHT22;24982;52.344;12.990;2023-04-15T04:59:00;9.20;99.90
9662;DHT22;24982;52.344;12.990;2023-04-15T05:02:02;9.20;99.90
9662;DHT22;24982;52.344;12.990;2023-04-15T05:05:05;9.20;99.90
9662;DHT22;24982;52.344;12.990;2023-04-15T05:08:08;9.30;99.90
9662;DHT22;24982;52.344;12.990;2023-04-15T05:11:10;9.30;99.90
9662;DHT22;24982;52.344;12.990;2023-04-15T05:14:14;9.20;99.90
9662;DHT22;24982;52.344;12.990;2023-04-15T05:17:16;9.30;99.90
9662;DHT22;24982;52.344;12.990;2023-04-15T05:20:18;9.30;99.90
9662;DHT22;24982;52.344;12.990;2023-04-15T05:23:20;9.30;99.90
9662;DHT22;24982;52.344;12.990;2023-04-15T05:26:22;9.20;99.90
9662;DHT22;24982;52.344;12.990;2023-04-15T05:29:25;9.30;99.90
9662;DHT22;24982;52.344;12.990;2023-04-15T05:32:27;9.30;99.90
9662;DHT22;24982;52.344;12.990;2023-04-15T05:35:29;9.30;99.90
9662;DHT22;24982;52.344;12.990;2023-04-15T05:38:31;9.30;99.90
9662;DHT22;24982;52.344;12.990;2023-04-15T05:41:33;9.30;99.90
9662;DHT22;24982;52.344;12.990;2023-04-15T05:44:37;9.30;99.90
9662;DHT22;24982;52.344;12.990;2023-04-15T05:47:39;9.40;99.90
9662;DHT22;24982;52.344;12.990;2023-04-15T05:50:41;9.30;99.90
9662;DHT22;24982;52.344;12.990;2023-04-15T05:53:43;9.40;99.90
9662;DHT22;24982;52.344;12.990;2023-04-15T05:56:49;9.40;99.90
9662;DHT22;24982;52.344;12.990;2023-04-15T06:54:49;10.20;99.90
9662;DHT22;24982;52.344;12.990;2023-04-15T06:57:51;10.30;99.90
9662;DHT22;24982;52.344;12.990;2023-04-15T07:00:55;10.30;99.90
9662;DHT22;24982;52.344;12.990;2023-04-15T07:03:57;10.40;99.90
9662;DHT22;24982;52.344;12.990;2023-04-15T07:06:59;10.40;99.90
9662;DHT22;24982;52.344;12.990;2023-04-15T07:13:05;10.50;99.90
9662;DHT22;24982;52.344;12.990;2023-04-15T07:16:09;10.50;99.90
9662;DHT22;24982;52.344;12.990;2023-04-15T07:28:18;10.70;99.90
9662;DHT22;24982;52.344;12.990;2023-04-15T07:31:22;10.70;99.90
9662;DHT22;24982;52.344;12.990;2023-04-15T07:34:24;10.60;99.90
9662;DHT22;24982;52.344;12.990;2023-04-15T07:37:26;10.60;99.90
9662;DHT22;24982;52.344;12.990;2023-04-15T07:40:28;10.60;99.90
9662;DHT22;24982;52.344;12.990;2023-04-15T07:43:30;10.60;99.90
9662;DHT22;24982;52.344;12.990;2023-04-15T07:46:33;10.60;99.90
9662;DHT22;24982;52.344;12.990;2023-04-15T07:49:35;10.70;99.90
9662;DHT22;24982;52.344;12.990;2023-04-15T07:52:37;10.70;99.90
9662;DHT22;24982;52.344;12.990;2023-04-15T07:55:39;10.70;99.90
9662;DHT22;24982;52.344;12.990;2023-04-15T07:58:42;10.80;99.90
9662;DHT22;24982;52.344;12.990;2023-04-15T08:01:46;10.70;99.90
9662;DHT22;24982;52.344;12.990;2023-04-15T08:04:47;10.70;99.90
9662;DHT22;24982;52.344;12.990;2023-04-15T08:07:49;10.70;99.90
9662;DHT22;24982;52.344;12.990;2023-04-15T08:10:51;10.80;99.90
9662;DHT22;24982;52.344;12.990;2023-04-15T08:13:53;10.70;99.90
9662;DHT22;24982;52.344;12.990;2023-04-15T08:16:57;10.70;99.90
9662;DHT22;24982;52.344;12.990;2023-04-15T11:52:29;10.80;99.90
9662;DHT22;24982;52.344;12.990;2023-04-15T11:55:40;10.80;99.90
9662;DHT22;24982;52.344;12.990;2023-04-15T11:58:43;10.80;99.90
9662;DHT22;24982;52.344;12.990;2023-04-15T12:01:47;10.80;99.90
9662;DHT22;24982;52.344;12.990;2023-04-15T12:05:02;10.70;99.90
9662;DHT22;24982;52.344;12.990;2023-04-15T12:08:06;10.70;99.90
9662;DHT22;24982;52.344;12.990;2023-04-15T12:11:08;10.70;99.90
9662;DHT22;24982;52.344;12.990;2023-04-15T13:15:18;11.20;99.90
9662;DHT22;24982;52.344;12.990;2023-04-15T13:18:22;11.10;99.90
9662;DHT22;24982;52.344;12.990;2023-04-15T13:21:24;11.10;99.90
9662;DHT22;24982;52.344;12.990;2023-04-15T13:24:28;11.10;99.90
9662;DHT22;24982;52.344;12.990;2023-04-15T13:27:30;11.10;99.90
9662;DHT22;24982;52.344;12.990;2023-04-15T13:30:32;11.00;99.90
9662;DHT22;24982;52.344;12.990;2023-04-15T13:33:34;11.00;99.90
9662;DHT22;24982;52.344;12.990;2023-04-15T13:36:36;11.10;99.90
9662;DHT22;24982;52.344;12.990;2023-04-15T13:39:39;11.10;99.90
9662;DHT22;24982;52.344;12.990;2023-04-15T13:42:41;11.00;99.90
9662;DHT22;24982;52.344;12.990;2023-04-15T13:45:43;11.10;99.90
9662;DHT22;24982;52.344;12.990;2023-04-15T13:48:45;11.10;99.90
9662;DHT22;24982;52.344;12.990;2023-04-15T13:51:47;11.10;99.90
9662;DHT22;24982;52.344;12.990;2023-04-15T13:54:50;11.10;99.90
9662;DHT22;24982;52.344;12.990;2023-04-15T13:57:52;11.10;99.90
9662;DHT22;24982;52.344;12.990;2023-04-15T14:03:57;11.30;99.90
9662;DHT22;24982;52.344;12.990;2023-04-15T14:10:04;11.20;99.90
9662;DHT22;24982;52.344;12.990;2023-04-15T14:22:13;11.20;99.90
9662;DHT22;24982;52.344;12.990;2023-04-15T14:25:16;11.20;99.90
9662;DHT22;24982;52.344;12.990;2023-04-15T14:28:18;11.00;99.90
9662;DHT22;24982;52.344;12.990;2023-04-15T14:31:21;11.10;99.90
9662;DHT22;24982;52.344;12.990;2023-04-15T14:34:23;11.00;99.90
9662;DHT22;24982;52.344;12.990;2023-04-15T14:37:26;11.00;99.90
9662;DHT22;24982;52.344;12.990;2023-04-15T14:40:29;11.00;99.90
9662;DHT22;24982;52.344;12.990;2023-04-15T14:46:33;11.00;99.90
9662;DHT22;24982;52.344;12.990;2023-04-15T14:49:35;11.00;99.90
9662;DHT22;24982;52.344;12.990;2023-04-15T14:52:38;11.00;99.90
9662;DHT22;24982;52.344;12.990;2023-04-15T14:55:41;11.10;99.90
9662;DHT22;24982;52.344;12.990;2023-04-15T14:58:43;11.10;99.90
9662;DHT22;24982;52.344;12.990;2023-04-15T15:01:45;11.10;99.90
9662;DHT22;24982;52.344;12.990;2023-04-15T15:04:47;11.10;99.90
9662;DHT22;24982;52.344;12.990;2023-04-15T15:07:49;11.10;99.90
9662;DHT22;24982;52.344;12.990;2023-04-15T15:10:52;11.10;99.90
9662;DHT22;24982;52.344;12.990;2023-04-15T15:13:54;11.10;99.90
9662;DHT22;24982;52.344;12.990;2023-04-15T15:20:00;10.90;99.90
9662;DHT22;24982;52.344;12.990;2023-04-15T15:23:03;11.00;99.90
9662;DHT22;24982;52.344;12.990;2023-04-15T15:26:06;11.00;99.90
9662;DHT22;24982;52.344;12.990;2023-04-15T15:29:08;11.00;99.90
9662;DHT22;24982;52.344;12.990;2023-04-15T15:32:10;10.90;99.90
9662;DHT22;24982;52.344;12.990;2023-04-15T15:35:12;10.90;99.90
9662;DHT22;24982;52.344;12.990;2023-04-15T15:38:14;10.90;99.90
9662;DHT22;24982;52.344;12.990;2023-04-15T15:41:18;10.90;99.90
9662;DHT22;24982;52.344;12.990;2023-04-15T15:44:20;10.90;99.90
9662;DHT22;24982;52.344;12.990;2023-04-15T15:47:22;10.80;99.90
9662;DHT22;24982;52.344;12.990;2023-04-15T15:50:26;10.80;99.90
9662;DHT22;24982;52.344;12.990;2023-04-15T15:53:28;10.90;99.90
9662;DHT22;24982;52.344;12.990;2023-04-15T15:56:31;10.90;99.90
9662;DHT22;24982;52.344;12.990;2023-04-15T15:59:34;10.90;99.90
9662;DHT22;24982;52.344;12.990;2023-04-15T16:02:41;10.90;99.90
9662;DHT22;24982;52.344;12.990;2023-04-15T16:05:44;10.90;99.90
9662;DHT22;24982;52.344;12.990;2023-04-15T16:08:46;10.90;99.90
9662;DHT22;24982;52.344;12.990;2023-04-15T16:11:50;10.90;99.90
9662;DHT22;24982;52.344;12.990;2023-04-15T16:14:52;10.90;99.90
9662;DHT22;24982;52.344;12.990;2023-04-15T16:17:54;10.90;99.90
9662;DHT22;24982;52.344;12.990;2023-04-15T16:20:56;10.90;99.90
9662;DHT22;24982;52.344;12.990;2023-04-15T16:23:59;10.90;99.90
9662;DHT22;24982;52.344;12.990;2023-04-15T16:27:02;10.90;99.90
9662;DHT22;24982;52.344;12.990;2023-04-15T16:30:05;10.90;99.90
9662;DHT22;24982;52.344;12.990;2023-04-15T16:33:07;10.90;99.90
9662;DHT22;24982;52.344;12.990;2023-04-15T16:36:10;10.90;99.90
9662;DHT22;24982;52.344;12.990;2023-04-15T16:39:11;10.90;99.90
9662;DHT22;24982;52.344;12.990;2023-04-15T16:42:15;10.90;99.90
9662;DHT22;24982;52.344;12.990;2023-04-15T16:45:17;10.90;99.90
9662;DHT22;24982;52.344;12.990;2023-04-15T16:48:20;10.90;99.90
9662;DHT22;24982;52.344;12.990;2023-04-15T16:51:22;10.90;99.90
9662;DHT22;24982;52.344;12.990;2023-04-15T16:54:24;10.90;99.90
9662;DHT22;24982;52.344;12.990;2023-04-15T16:57:27;10.80;99.90
9662;DHT22;24982;52.344;12.990;2023-04-15T17:03:31;10.80;99.90
9662;DHT22;24982;52.344;12.990;2023-04-15T17:06:33;10.80;99.90
9662;DHT22;24982;52.344;12.990;2023-04-15T17:09:37;10.80;99.90
9662;DHT22;24982;52.344;12.990;2023-04-15T17:12:40;10.80;99.90
9662;DHT22;24982;52.344;12.990;2023-04-15T17:15:42;10.80;99.90
9662;DHT22;24982;52.344;12.990;2023-04-15T17:18:44;10.80;99.90
9662;DHT22;24982;52.344;12.990;2023-04-15T17:21:50;10.80;99.90
9662;DHT22;24982;52.344;12.990;2023-04-15T17:24:52;10.80;99.90
9662;DHT22;24982;52.344;12.990;2023-04-15T17:27:55;10.80;99.90
9662;DHT22;24982;52.344;12.990;2023-04-15T17:30:57;10.80;99.90
9662;DHT22;24982;52.344;12.990;2023-04-15T17:33:59;10.80;99.90
9662;DHT22;24982;52.344;12.990;2023-04-15T17:37:01;10.70;99.90
9662;DHT22;24982;52.344;12.990;2023-04-15T17:40:04;10.80;99.90
9662;DHT22;24982;52.344;12.990;2023-04-15T17:43:08;10.80;99.90
9662;DHT22;24982;52.344;12.990;2023-04-15T17:46:10;10.70;99.90
9662;DHT22;24982;52.344;12.990;2023-04-15T17:49:13;10.70;99.90
9662;DHT22;24982;52.344;12.990;2023-04-15T17:55:17;10.70;99.90
9662;DHT22;24982;52.344;12.990;2023-04-15T17:58:20;10.70;99.90
9662;DHT22;24982;52.344;12.990;2023-04-15T18:01:22;10.70;99.90
9662;DHT22;24982;52.344;12.990;2023-04-15T18:04:25;10.80;99.90
9662;DHT22;24982;52.344;12.990;2023-04-15T18:07:27;10.70;99.90
9662;DHT22;24982;52.344;12.990;2023-04-15T18:10:32;10.70;99.90
9662;DHT22;24982;52.344;12.990;2023-04-15T18:13:35;10.70;99.90
9662;DHT22;24982;52.344;12.990;2023-04-15T18:16:37;10.70;99.90
9662;DHT22;24982;52.344;12.990;2023-04-15T18:19:39;10.70;99.90
9662;DHT22;24982;52.344;12.990;2023-04-15T18:22:41;10.70;99.90
9662;DHT22;24982;52.344;12.990;2023-04-15T18:25:43;10.40;99.90
9662;DHT22;24982;52.344;12.990;2023-04-15T18:28:47;10.70;99.90
9662;DHT22;24982;52.344;12.990;2023-04-15T18:31:50;10.70;99.90
9662;DHT22;24982;52.344;12.990;2023-04-15T18:34:52;10.70;99.90
9662;DHT22;24982;52.344;12.990;2023-04-15T18:37:55;10.70;99.90
9662;DHT22;24982;52.344;12.990;2023-04-15T18:44:02;10.70;99.90
9662;DHT22;24982;52.344;12.990;2023-04-15T18:50:07;10.60;99.90
